createdAt,value
2022-08-05T00:06:33.096Z,15.6
2022-08-05T00:11:01.837Z,15.8
2022-08-05T00:16:01.025Z,15.9
2022-08-05T00:21:01.357Z,16.2
2022-08-05T00:26:01.811Z,15.5
2022-08-05T00:31:04.774Z,15.3
2022-08-05T00:41:02.089Z,15.3
2022-08-05T00:46:02.741Z,15.5
2022-08-05T00:51:50.077Z,16.6
2022-08-05T00:56:01.675Z,17.1
2022-08-05T01:01:13.041Z,17.3
2022-08-05T01:06:05.566Z,17.4
2022-08-05T01:11:01.647Z,18.0
2022-08-05T01:16:01.832Z,18.0
2022-08-05T01:26:01.461Z,18.3
2022-08-05T01:31:03.209Z,18.0
2022-08-05T01:36:01.969Z,17.4
2022-08-05T01:41:02.134Z,17.9
2022-08-05T01:46:41.863Z,17.9
2022-08-05T01:51:13.414Z,17.3
2022-08-05T01:56:04.762Z,17.5
2022-08-05T02:01:01.415Z,17.8
2022-08-05T02:11:01.470Z,18.4
2022-08-05T02:21:01.440Z,19.4
2022-08-05T02:26:02.029Z,19.6
2022-08-05T02:31:01.524Z,19.0
2022-08-05T02:36:02.013Z,18.3
2022-08-05T02:41:16.926Z,18.3
2022-08-05T02:46:02.401Z,18.1
2022-08-05T02:51:01.324Z,18.6
2022-08-05T02:56:02.524Z,19.2
2022-08-05T03:01:02.297Z,19.5
2022-08-05T03:16:01.200Z,18.2
2022-08-05T03:21:03.866Z,18.1
2022-08-05T03:31:01.778Z,20.0
2022-08-05T03:36:01.365Z,19.6
2022-08-05T03:41:10.900Z,19.1
2022-08-05T03:46:01.548Z,18.4
2022-08-05T04:06:01.582Z,18.8
2022-08-05T04:11:01.707Z,19.0
2022-08-05T04:16:04.986Z,18.9
2022-08-05T04:21:01.668Z,19.5
2022-08-05T04:26:04.560Z,20.3
2022-08-05T04:31:08.581Z,20.5
2022-08-05T04:41:03.775Z,21.3
2022-08-05T04:46:01.266Z,21.6
2022-08-05T04:51:13.718Z,21.3
2022-08-05T05:01:01.711Z,20.3
2022-08-05T05:11:02.548Z,17.9
2022-08-05T05:16:07.706Z,17.6
2022-08-05T05:21:03.692Z,17.8
2022-08-05T05:26:03.475Z,17.3
2022-08-05T05:31:09.721Z,16.9
2022-08-05T05:36:01.393Z,15.9
2022-08-05T05:41:01.818Z,16.0
2022-08-05T05:51:17.323Z,16.7
2022-08-05T05:56:04.097Z,16.8
2022-08-05T06:01:13.469Z,17.5
2022-08-05T06:06:01.402Z,16.9
2022-08-05T06:11:01.580Z,16.5
2022-08-05T06:21:01.425Z,14.3
2022-08-05T06:31:17.756Z,13.0
2022-08-05T06:36:11.350Z,12.4
2022-08-05T06:41:03.412Z,12.3
2022-08-05T06:46:07.558Z,13.6
2022-08-05T06:51:10.309Z,13.8
2022-08-05T06:56:01.375Z,14.0
2022-08-05T07:01:04.020Z,15.0
2022-08-05T07:06:14.032Z,15.9
2022-08-05T07:11:02.146Z,16.0
2022-08-05T07:16:05.729Z,16.4
2022-08-05T07:21:05.769Z,17.4
2022-08-05T07:26:02.188Z,17.5
2022-08-05T07:31:02.569Z,18.0
2022-08-05T07:46:02.699Z,18.9
2022-08-05T07:51:02.212Z,19.0
2022-08-05T08:06:01.670Z,19.0
2022-08-05T08:11:01.782Z,19.2
2022-08-05T08:45:30.456Z,18.0
2022-08-05T09:01:02.595Z,15.9
2022-08-05T09:06:24.015Z,16.3
2022-08-05T09:11:01.862Z,15.6
2022-08-05T09:16:03.756Z,15.8
2022-08-05T09:26:06.844Z,16.1
2022-08-05T09:36:16.597Z,16.3
2022-08-05T09:41:04.194Z,17.0
2022-08-05T09:51:15.863Z,17.3
2022-08-05T09:56:12.780Z,18.3
2022-08-05T10:06:20.833Z,18.4
2022-08-05T10:11:02.893Z,19.6
2022-08-05T10:16:02.159Z,20.1
2022-08-05T10:21:16.972Z,21.8
2022-08-05T10:26:01.592Z,21.6
2022-08-05T10:36:01.493Z,22.0
2022-08-05T10:41:01.406Z,22.4
2022-08-05T10:46:07.027Z,22.1
2022-08-05T10:56:29.077Z,21.2
2022-08-05T11:01:04.931Z,21.1
2022-08-05T11:11:52.511Z,18.9
2022-08-05T11:16:21.734Z,18.8
2022-08-05T11:21:02.673Z,19.0
2022-08-05T11:26:09.431Z,18.4
2022-08-05T11:31:06.841Z,17.6
2022-08-05T11:36:08.992Z,18.0
2022-08-05T11:46:37.874Z,16.6
2022-08-05T11:51:02.601Z,15.7
2022-08-05T11:56:05.915Z,14.8
2022-08-05T12:01:04.810Z,14.3
2022-08-05T12:06:02.187Z,14.5
2022-08-05T12:11:07.615Z,13.9
2022-08-05T12:16:01.649Z,13.7
2022-08-05T12:21:12.451Z,13.8
2022-08-05T12:26:02.025Z,13.6
2022-08-05T12:31:03.717Z,13.3
2022-08-05T12:36:09.086Z,12.8
2022-08-05T12:41:01.653Z,12.1
2022-08-05T12:46:01.715Z,11.6
2022-08-05T12:57:13.101Z,11.4
2022-08-05T13:02:08.215Z,11.9
2022-08-05T13:07:02.000Z,12.0
2022-08-05T13:12:03.874Z,12.5
2022-08-05T13:17:10.078Z,12.5
2022-08-05T13:22:03.367Z,12.4
2022-08-05T13:27:01.611Z,11.3
2022-08-05T13:32:05.456Z,11.1
2022-08-05T13:37:01.631Z,10.6
2022-08-05T13:42:02.818Z,10.3
2022-08-05T13:47:09.764Z,9.6
2022-08-05T13:52:01.618Z,9.9
2022-08-05T13:57:02.614Z,9.9
2022-08-05T14:02:29.743Z,9.7
2022-08-05T14:12:32.421Z,9.8
2022-08-05T14:22:12.300Z,9.9
2022-08-05T14:27:18.730Z,9.5
2022-08-05T14:32:27.462Z,9.3
2022-08-05T14:37:01.436Z,9.0
2022-08-05T14:47:03.837Z,9.4
2022-08-05T14:52:01.551Z,9.8
2022-08-05T14:57:09.663Z,10.0
2022-08-05T15:02:16.374Z,9.9
2022-08-05T15:07:03.655Z,9.8
2022-08-05T15:12:04.258Z,9.4
2022-08-05T15:22:02.375Z,9.8
2022-08-05T15:27:09.843Z,10.0
2022-08-05T15:32:03.470Z,9.2
2022-08-05T15:47:01.725Z,9.0
2022-08-05T15:52:16.506Z,9.1
2022-08-05T15:57:02.060Z,9.7
2022-08-05T16:02:02.008Z,9.0
2022-08-05T16:07:02.280Z,9.0
2022-08-05T16:12:02.693Z,9.1
2022-08-05T16:17:01.610Z,8.9
2022-08-05T16:22:03.640Z,8.6
2022-08-05T16:27:02.267Z,9.9
2022-08-05T16:32:04.975Z,9.7
2022-08-05T16:42:28.572Z,9.4
2022-08-05T16:47:02.038Z,10.0
2022-08-05T16:52:05.111Z,9.9
2022-08-05T16:57:02.879Z,10.0
2022-08-05T17:02:01.814Z,9.4
2022-08-05T17:07:12.172Z,9.6
2022-08-05T17:12:05.284Z,9.3
2022-08-05T17:17:02.797Z,8.5
2022-08-05T17:22:04.539Z,7.7
2022-08-05T17:27:02.437Z,7.0
2022-08-05T17:32:01.443Z,6.7
2022-08-05T17:37:01.704Z,5.8
2022-08-05T17:42:32.209Z,6.1
2022-08-05T17:47:01.902Z,6.7
2022-08-05T17:52:01.911Z,7.1
2022-08-05T17:57:12.502Z,6.7
2022-08-05T18:02:11.597Z,7.4
2022-08-05T18:07:04.336Z,7.3
2022-08-05T18:12:01.821Z,7.7
2022-08-05T18:22:57.289Z,11.1
2022-08-05T18:27:01.682Z,12.2
2022-08-05T18:32:04.093Z,13.7
2022-08-05T18:37:01.273Z,14.8
2022-08-05T18:42:12.130Z,15.5
2022-08-05T18:47:01.555Z,16.0
2022-08-05T18:52:08.143Z,16.2
2022-08-05T18:57:01.858Z,16.6
2022-08-05T19:07:02.683Z,17.7
2022-08-05T19:12:01.910Z,17.2
2022-08-05T19:17:02.259Z,17.4
2022-08-05T19:22:02.213Z,16.5
2022-08-05T19:27:06.459Z,15.0
2022-08-05T19:32:01.724Z,12.8
2022-08-05T19:37:02.109Z,11.5
2022-08-05T19:42:09.703Z,9.8
2022-08-05T19:47:01.689Z,8.3
2022-08-05T19:57:11.445Z,6.2
2022-08-05T20:02:02.989Z,5.6
2022-08-05T20:07:02.091Z,4.8
2022-08-05T20:12:03.304Z,4.2
2022-08-05T20:17:02.305Z,3.1
2022-08-05T20:22:02.300Z,2.4
2022-08-05T20:27:02.524Z,1.8
2022-08-05T20:32:02.863Z,1.4
2022-08-05T20:37:02.056Z,1.1
2022-08-05T20:42:01.625Z,1.5
2022-08-05T20:47:07.564Z,1.4
2022-08-05T20:52:02.324Z,1.0
2022-08-05T21:02:04.090Z,0.8
2022-08-05T21:07:01.642Z,0.6
2022-08-05T21:12:12.196Z,1.0
2022-08-05T21:17:03.132Z,1.2
2022-08-05T21:27:01.998Z,1.6
2022-08-05T21:32:01.633Z,1.8
2022-08-05T21:37:01.871Z,2.1
2022-08-05T21:47:02.524Z,2.3
2022-08-05T22:02:02.299Z,2.5
2022-08-05T22:07:01.676Z,3.2
2022-08-05T22:12:10.934Z,3.4
2022-08-05T22:17:05.589Z,3.6
2022-08-05T22:22:01.605Z,3.6
2022-08-05T22:32:04.250Z,3.0
2022-08-05T22:37:04.643Z,3.1
2022-08-05T22:47:06.638Z,2.9
2022-08-05T22:52:12.585Z,3.1
2022-08-05T22:57:03.498Z,3.2
2022-08-05T23:07:01.694Z,3.0
2022-08-05T23:12:01.686Z,3.3
2022-08-05T23:17:02.076Z,3.3
2022-08-05T23:22:01.630Z,3.5
2022-08-05T23:27:01.700Z,3.2
2022-08-05T23:37:01.623Z,3.5
2022-08-05T23:42:02.458Z,3.4
2022-08-05T23:47:15.781Z,3.7
2022-08-05T23:52:02.852Z,3.9
2022-08-05T23:57:04.667Z,4.1
